Al Azamiyah, Iraq
Current Conditions -  °F | °C
As of 12:00 PM on Thursday 23 Oct 2014 (Local Time) from ORBI Reporting Station
Clear Clear  
Wind Chill: 79°   Ceiling: Unl
Heat Index: 79°   Visibility: 6mi
Dew Point: 46°   Wind: 6mph
Humidity: 32%   Direction: 320°NW
Pressure: 30.09"   Gusts: NA
Location:  33.38°N, 44.37°E
Report Text: ORBI 230900Z 32005KT 260V020 CAVOK 26/08 Q1019 NOSIG
Loading
Personal Weather Stations






























Interactive Weather Map
Tropical Storm Tracking
New forecast layout! Learn more

10-Day Weather Forecast

Advertisements
Track Severe Weather on mobile